Time;durP1;ratioP1;P1;durP2;ratioP2;P2;SDS_P1;SDS_P2;PMS_P1;PMS_P2;Temp;Humidity;BMP_temperature;BMP_pressure;BME280_temperature;BME280_humidity;BME280_pressure;Samples;Min_cycle;Max_cycle;Signal;HPM_P1;HPM_P2
2022/12/29 00:02:09;;;;;;;6.47;4.20;;;;;;;5.06;nan;-23957.97;5016294;28;20176;-71
2022/12/29 00:04:35;;;;;;;4.13;3.43;;;;;;;5.07;nan;-23958.25;5015586;28;20233;-71
2022/12/29 00:07:00;;;;;;;3.83;3.20;;;;;;;4.96;nan;-23955.13;5014834;28;20180;-70
2022/12/29 00:09:26;;;;;;;8.60;4.03;;;;;;;4.87;nan;-23952.56;5015118;28;20196;-71
2022/12/29 00:11:52;;;;;;;5.80;3.93;;;;;;;4.69;nan;-23947.59;5015283;28;20171;-70
2022/12/29 00:17:02;;;;;;;4.87;3.13;;;;;;;4.97;nan;-23955.41;5015559;28;20246;-71
2022/12/29 00:36:03;;;;;;;9.47;5.10;;;;;;;4.76;nan;-23949.59;5014473;28;20175;-71
2022/12/29 00:44:09;;;;;;;6.93;5.07;;;;;;;5.11;nan;-23959.41;5014005;28;20171;-70
2022/12/29 00:46:36;;;;;;;12.63;4.80;;;;;;;4.39;nan;-23939.19;5014919;28;20160;-70
2022/12/29 00:51:48;;;;;;;6.90;5.13;;;;;;;4.62;nan;-23945.47;5014634;28;20218;-70
2022/12/29 00:54:14;;;;;;;8.13;5.07;;;;;;;4.72;nan;-23948.31;5013487;28;20572;-70
2022/12/29 00:56:40;;;;;;;10.03;5.17;;;;;;;4.81;nan;-23950.84;5014763;28;20636;-70
2022/12/29 00:59:08;;;;;;;5.57;4.40;;;;;;;5.01;nan;-23956.56;5014224;28;20218;-69
2022/12/29 01:01:34;;;;;;;8.90;5.10;;;;;;;4.58;nan;-23944.31;5014742;28;20250;-71
2022/12/29 01:04:00;;;;;;;7.93;4.67;;;;;;;4.69;nan;-23947.44;5014242;28;20223;-70
2022/12/29 01:06:26;;;;;;;5.80;4.50;;;;;;;5.03;nan;-23956.97;5014140;28;20183;-70
2022/12/29 01:11:37;;;;;;;5.10;4.27;;;;;;;4.59;nan;-23944.75;5013840;28;20175;-70
2022/12/29 01:14:02;;;;;;;9.63;5.23;;;;;;;4.92;nan;-23953.84;5013189;28;20183;-70
2022/12/29 01:16:28;;;;;;;7.63;3.83;;;;;;;5.07;nan;-23958.13;5014247;28;20182;-70
2022/12/29 01:18:53;;;;;;;7.90;4.90;;;;;;;4.78;nan;-23950.16;5014341;28;20183;-71
2022/12/29 01:21:18;;;;;;;8.20;4.40;;;;;;;5.15;nan;-23960.53;5014074;28;20170;-70
2022/12/29 01:23:44;;;;;;;5.80;4.30;;;;;;;5.09;nan;-23958.81;5013945;28;20223;-70
2022/12/29 01:26:11;;;;;;;9.23;4.80;;;;;;;5.04;nan;-23957.25;5014129;28;20180;-70
2022/12/29 01:28:39;;;;;;;10.77;5.23;;;;;;;4.97;nan;-23955.41;5013724;28;20176;-71
2022/12/29 01:31:05;;;;;;;7.90;5.17;;;;;;;5.26;nan;-23963.66;5013700;28;20218;-70
2022/12/29 01:33:31;;;;;;;8.37;5.50;;;;;;;5.30;nan;-23964.81;5012344;28;20270;-70
2022/12/29 01:36:00;;;;;;;7.43;4.80;;;;;;;5.38;nan;-23966.78;5013811;28;20179;-71
2022/12/29 01:38:26;;;;;;;10.07;5.40;;;;;;;4.97;nan;-23955.41;5013961;28;20602;-69
2022/12/29 01:40:51;;;;;;;13.17;6.50;;;;;;;5.10;nan;-23959.13;5013330;28;20184;-70
2022/12/29 01:43:16;;;;;;;10.17;5.30;;;;;;;5.05;nan;-23957.53;5013744;28;20167;-70
2022/12/29 01:45:50;;;;;;;11.33;6.03;;;;;;;5.48;nan;-23969.63;5013805;28;20318;-71
2022/12/29 01:48:17;;;;;;;10.10;5.23;;;;;;;5.50;nan;-23970.22;5017039;28;20184;-70
2022/12/29 01:50:50;;;;;;;12.07;6.43;;;;;;;5.45;nan;-23968.78;5013617;28;20215;-71
2022/12/29 01:53:20;;;;;;;9.80;5.67;;;;;;;5.11;nan;-23959.41;5012810;28;20534;-70
2022/12/29 01:55:53;;;;;;;9.37;6.37;;;;;;;5.05;nan;-23957.53;5012232;28;20669;-70
2022/12/29 01:58:24;;;;;;;13.47;6.47;;;;;;;5.44;nan;-23968.50;5013589;28;20184;-70
2022/12/29 02:00:49;;;;;;;13.73;5.13;;;;;;;5.52;nan;-23970.78;5013342;28;20202;-72
2022/12/29 02:03:17;;;;;;;10.40;5.57;;;;;;;4.80;nan;-23950.56;5012951;28;20176;-71
2022/12/29 02:05:52;;;;;;;9.50;6.40;;;;;;;5.59;nan;-23972.75;5013401;28;20172;-70
2022/12/29 02:08:18;;;;;;;10.63;5.33;;;;;;;5.50;nan;-23970.22;5013466;28;20253;-70
2022/12/29 02:10:44;;;;;;;17.83;6.43;;;;;;;5.54;nan;-23971.34;5012902;28;20227;-71
2022/12/29 02:13:10;;;;;;;11.80;6.37;;;;;;;5.25;nan;-23963.25;5013087;28;20183;-70
2022/12/29 02:16:00;;;;;;;7.83;4.97;;;;;;;5.62;nan;-23973.75;5013264;28;20181;-70
2022/12/29 02:18:43;;;;;;;9.10;5.83;;;;;;;5.17;nan;-23961.09;5012977;28;20184;-71
2022/12/29 02:21:15;;;;;;;16.73;5.90;;;;;;;5.58;nan;-23972.47;5012948;28;20224;-70
2022/12/29 02:23:58;;;;;;;10.07;5.57;;;;;;;5.52;nan;-23970.78;5012866;28;20168;-70
2022/12/29 02:26:51;;;;;;;8.50;6.03;;;;;;;5.50;nan;-23970.22;5013185;28;20645;-70
2022/12/29 02:29:26;;;;;;;8.30;5.53;;;;;;;5.33;nan;-23965.66;5012670;28;20168;-70
2022/12/29 02:32:05;;;;;;;7.17;5.43;;;;;;;5.24;nan;-23963.09;5012623;28;20222;-70
2022/12/29 02:35:08;;;;;;;9.73;5.90;;;;;;;5.23;nan;-23962.81;5012722;28;20172;-71
2022/12/29 02:37:43;;;;;;;12.43;6.00;;;;;;;5.19;nan;-23961.53;5013127;28;20188;-70
2022/12/29 02:40:37;;;;;;;10.03;5.27;;;;;;;5.16;nan;-23960.81;5012393;28;20210;-70
2022/12/29 02:43:24;;;;;;;9.67;6.13;;;;;;;4.60;nan;-23944.88;5012335;28;20222;-70
2022/12/29 02:45:49;;;;;;;8.50;4.83;;;;;;;5.04;nan;-23957.25;5012763;28;20176;-70
2022/12/29 02:48:24;;;;;;;10.23;5.97;;;;;;;4.99;nan;-23955.84;5012320;28;20678;-70
2022/12/29 02:51:12;;;;;;;11.10;4.80;;;;;;;4.82;nan;-23951.16;5012221;28;20199;-71
2022/12/29 02:56:22;;;;;;;18.33;9.00;;;;;;;4.81;nan;-23950.84;5012659;28;20610;-70
2022/12/29 02:58:48;;;;;;;13.23;6.27;;;;;;;4.74;nan;-23948.88;5012080;28;20251;-70
2022/12/29 03:04:56;;;;;;;10.07;5.10;;;;;;;4.76;nan;-23949.44;5012333;28;20294;-70
2022/12/29 03:07:54;;;;;;;7.23;5.17;;;;;;;4.71;nan;-23948.03;5012102;28;20184;-70
2022/12/29 03:10:35;;;;;;;10.77;5.20;;;;;;;4.64;nan;-23946.03;5012473;28;20215;-70
2022/12/29 03:16:03;;;;;;;6.93;4.60;;;;;;;4.29;nan;-23936.34;5012294;28;20191;-70
2022/12/29 03:18:59;;;;;;;11.60;5.70;;;;;;;3.65;nan;-23918.13;5012766;28;20628;-70
2022/12/29 03:24:31;;;;;;;12.83;6.33;;;;;;;3.82;nan;-23923.09;5010580;28;20195;-70
2022/12/29 03:27:00;;;;;;;11.93;7.03;;;;;;;3.52;nan;-23914.53;5012225;28;20195;-70
2022/12/29 03:29:29;;;;;;;9.23;6.03;;;;;;;3.47;nan;-23913.25;5012858;28;20254;-69
2022/12/29 03:31:56;;;;;;;11.13;6.27;;;;;;;3.50;nan;-23914.13;5012067;28;20172;-70
2022/12/29 03:34:23;;;;;;;10.00;5.77;;;;;;;3.32;nan;-23909.00;5012021;28;20199;-70
2022/12/29 03:37:04;;;;;;;10.63;5.57;;;;;;;3.26;nan;-23907.13;5012332;28;20234;-70
2022/12/29 03:39:31;;;;;;;8.93;5.80;;;;;;;3.50;nan;-23914.13;5011544;28;20642;-70
2022/12/29 03:42:02;;;;;;;7.83;5.30;;;;;;;3.25;nan;-23906.84;5012001;28;20184;-70
2022/12/29 03:44:36;;;;;;;11.20;6.13;;;;;;;3.10;nan;-23902.72;5011958;28;20541;-70
2022/12/29 03:47:02;;;;;;;13.47;7.00;;;;;;;3.21;nan;-23905.72;5012188;28;20176;-70
2022/12/29 03:49:27;;;;;;;11.43;5.40;;;;;;;3.19;nan;-23905.13;5012000;28;20196;-70
2022/12/29 03:51:53;;;;;;;10.20;5.30;;;;;;;3.23;nan;-23906.28;5010337;28;20188;-70
2022/12/29 03:54:18;;;;;;;9.67;5.60;;;;;;;3.34;nan;-23909.56;5010928;28;20187;-70
2022/12/29 03:56:44;;;;;;;7.60;4.70;;;;;;;3.19;nan;-23905.28;5011538;28;20247;-70
2022/12/29 03:59:09;;;;;;;8.27;5.93;;;;;;;3.39;nan;-23910.84;5011862;28;20242;-70
2022/12/29 04:01:35;;;;;;;12.27;5.97;;;;;;;2.91;nan;-23897.28;5011753;28;20168;-70
2022/12/29 04:04:00;;;;;;;9.80;4.47;;;;;;;3.58;nan;-23916.25;5011736;28;20224;-70
2022/12/29 04:06:25;;;;;;;6.90;5.10;;;;;;;3.52;nan;-23914.53;5011721;28;20183;-70
2022/12/29 04:08:51;;;;;;;10.23;6.50;;;;;;;3.34;nan;-23909.56;5011738;28;20664;-70
2022/12/29 04:11:16;;;;;;;8.27;5.50;;;;;;;3.33;nan;-23909.28;5011871;28;20204;-70
2022/12/29 04:13:41;;;;;;;10.30;5.40;;;;;;;3.30;nan;-23908.41;5011643;28;20176;-70
2022/12/29 04:16:08;;;;;;;9.73;5.33;;;;;;;2.97;nan;-23899.00;5011798;28;20627;-70
2022/12/29 04:18:33;;;;;;;13.00;5.30;;;;;;;2.83;nan;-23895.00;5011618;28;20238;-70
2022/12/29 04:21:02;;;;;;;10.53;5.53;;;;;;;3.10;nan;-23902.84;5015230;28;20176;-71
2022/12/29 04:23:30;;;;;;;8.83;5.93;;;;;;;3.05;nan;-23901.28;5014830;28;20298;-70
2022/12/29 04:25:55;;;;;;;10.23;6.43;;;;;;;3.08;nan;-23902.28;5015403;28;20180;-70
2022/12/29 04:28:20;;;;;;;10.63;6.00;;;;;;;2.69;nan;-23891.16;5015392;28;20179;-70
2022/12/29 04:30:46;;;;;;;13.40;6.53;;;;;;;2.98;nan;-23899.28;5015022;28;20290;-70
2022/12/29 04:33:12;;;;;;;11.73;6.53;;;;;;;2.87;nan;-23896.28;5014845;28;20184;-70
2022/12/29 04:35:38;;;;;;;10.07;6.27;;;;;;;2.74;nan;-23892.44;5015068;28;20188;-70
2022/12/29 04:38:03;;;;;;;11.60;6.00;;;;;;;2.77;nan;-23893.31;5014664;28;20179;-70
2022/12/29 04:40:28;;;;;;;9.43;5.60;;;;;;;2.87;nan;-23896.28;5014672;28;20191;-70
2022/12/29 04:42:54;;;;;;;8.73;4.90;;;;;;;2.60;nan;-23888.59;5014878;28;20237;-70
2022/12/29 04:45:20;;;;;;;14.13;6.23;;;;;;;2.63;nan;-23889.59;5014684;28;20176;-71
2022/12/29 04:47:45;;;;;;;9.40;5.37;;;;;;;2.86;nan;-23896.00;5014534;28;20273;-70
2022/12/29 04:50:11;;;;;;;10.43;5.87;;;;;;;2.60;nan;-23888.72;5014521;28;20575;-70
2022/12/29 04:52:36;;;;;;;11.83;5.77;;;;;;;2.99;nan;-23899.56;5014773;28;20188;-71
2022/12/29 04:55:03;;;;;;;8.07;5.57;;;;;;;2.52;nan;-23886.31;5014489;28;20168;-70
2022/12/29 04:57:28;;;;;;;9.90;6.00;;;;;;;2.56;nan;-23887.59;5014293;28;20176;-71
2022/12/29 04:59:54;;;;;;;10.87;5.47;;;;;;;2.53;nan;-23886.75;5014472;28;20318;-71
2022/12/29 05:02:19;;;;;;;7.40;5.03;;;;;;;2.33;nan;-23881.03;5014747;28;20226;-71
2022/12/29 05:04:45;;;;;;;8.83;5.10;;;;;;;2.81;nan;-23894.59;5014477;28;20306;-71
2022/12/29 05:07:11;;;;;;;9.00;5.23;;;;;;;2.38;nan;-23882.44;5015320;28;20233;-70
2022/12/29 05:09:37;;;;;;;9.13;5.33;;;;;;;2.58;nan;-23888.16;5018610;28;20218;-71
2022/12/29 05:12:02;;;;;;;6.60;4.50;;;;;;;2.75;nan;-23892.72;5018732;28;20207;-71
2022/12/29 05:14:28;;;;;;;10.80;4.70;;;;;;;2.79;nan;-23894.00;5017641;28;20623;-71
2022/12/29 05:20:15;;;;;;;10.77;5.77;;;;;;;2.20;nan;-23877.47;5016287;28;20226;-71
2022/12/29 05:22:40;;;;;;;6.23;5.30;;;;;;;2.60;nan;-23888.59;5017000;28;20183;-71
2022/12/29 05:25:06;;;;;;;11.87;5.93;;;;;;;2.55;nan;-23887.31;5018584;28;20250;-70
2022/12/29 05:27:32;;;;;;;8.87;5.30;;;;;;;2.46;nan;-23884.75;5012911;28;20180;-71
2022/12/29 05:29:57;;;;;;;11.53;5.63;;;;;;;2.21;nan;-23877.75;5012269;28;20617;-70
2022/12/29 05:32:23;;;;;;;7.63;4.73;;;;;;;2.14;nan;-23875.75;5013652;28;20215;-70
2022/12/29 05:34:48;;;;;;;7.60;5.43;;;;;;;2.41;nan;-23883.31;5011103;28;20176;-71
2022/12/29 05:37:13;;;;;;;8.57;5.47;;;;;;;2.27;nan;-23879.31;5014825;28;20636;-70
2022/12/29 05:39:39;;;;;;;7.50;4.47;;;;;;;2.31;nan;-23880.31;5017132;28;20298;-71
2022/12/29 05:42:04;;;;;;;18.87;6.83;;;;;;;1.95;nan;-23870.16;5016273;28;20186;-70
2022/12/29 05:44:30;;;;;;;10.60;5.80;;;;;;;1.88;nan;-23868.16;5015000;28;20179;-71
2022/12/29 05:46:55;;;;;;;10.07;5.83;;;;;;;2.00;nan;-23871.59;5018756;28;20773;-70
2022/12/29 05:49:21;;;;;;;10.93;5.37;;;;;;;1.83;nan;-23866.88;5013686;28;20187;-71
2022/12/29 05:52:42;;;;;;;9.17;4.10;;;;;;;2.20;nan;-23877.47;5016173;28;20634;-70
2022/12/29 05:55:08;;;;;;;10.60;5.00;;;;;;;2.01;nan;-23872.03;5009443;28;20191;-70
2022/12/29 05:57:33;;;;;;;10.07;5.93;;;;;;;1.94;nan;-23869.88;5013258;28;20195;-71
2022/12/29 05:59:58;;;;;;;9.77;5.47;;;;;;;2.35;nan;-23881.59;5013117;28;20218;-71
2022/12/29 06:02:24;;;;;;;11.73;6.93;;;;;;;1.63;nan;-23861.16;5013139;28;20199;-71
2022/12/29 06:04:49;;;;;;;13.83;6.47;;;;;;;2.15;nan;-23875.88;5012707;28;20231;-71
2022/12/29 06:07:15;;;;;;;5.83;5.23;;;;;;;2.27;nan;-23879.16;5013696;28;20521;-70
2022/12/29 06:09:40;;;;;;;5.07;4.00;;;;;;;2.00;nan;-23871.59;5012579;28;20234;-71
2022/12/29 06:12:06;;;;;;;8.20;4.83;;;;;;;2.41;nan;-23883.16;5013042;28;20264;-70
2022/12/29 06:14:31;;;;;;;6.70;4.10;;;;;;;2.40;nan;-23883.03;5013071;28;20168;-71
2022/12/29 06:16:57;;;;;;;8.73;4.50;;;;;;;2.16;nan;-23876.16;5013028;28;20631;-71
2022/12/29 06:19:22;;;;;;;11.50;7.03;;;;;;;2.08;nan;-23873.88;5012828;28;20184;-71
2022/12/29 06:21:47;;;;;;;8.33;4.93;;;;;;;2.06;nan;-23873.47;5012989;28;20671;-71
2022/12/29 06:24:13;;;;;;;6.83;4.87;;;;;;;2.69;nan;-23891.16;5013406;28;20186;-70
2022/12/29 06:26:39;;;;;;;8.23;5.50;;;;;;;2.51;nan;-23886.16;5012589;28;20180;-70
2022/12/29 06:29:06;;;;;;;10.13;5.77;;;;;;;2.43;nan;-23883.75;5012569;28;20179;-70
2022/12/29 06:31:32;;;;;;;10.30;5.87;;;;;;;2.80;nan;-23894.31;5012404;28;20626;-71
2022/12/29 06:33:57;;;;;;;11.27;6.47;;;;;;;2.67;nan;-23890.72;5012499;28;20215;-71
2022/12/29 06:36:23;;;;;;;11.73;6.33;;;;;;;2.63;nan;-23889.59;5012796;28;20172;-71
2022/12/29 06:38:48;;;;;;;13.30;7.27;;;;;;;2.14;nan;-23875.75;5013067;28;20264;-71
2022/12/29 06:41:14;;;;;;;10.97;6.43;;;;;;;2.68;nan;-23891.00;5012570;28;20187;-70
2022/12/29 06:43:39;;;;;;;13.93;6.07;;;;;;;2.38;nan;-23882.31;5012424;28;20255;-70
2022/12/29 06:46:05;;;;;;;7.40;5.27;;;;;;;2.16;nan;-23876.16;5012659;28;20616;-71
2022/12/29 06:48:31;;;;;;;8.50;5.93;;;;;;;1.99;nan;-23871.31;5012516;28;20168;-70
2022/12/29 06:50:56;;;;;;;10.73;4.97;;;;;;;1.57;nan;-23859.59;5011985;28;20687;-70
2022/12/29 06:53:21;;;;;;;8.70;5.93;;;;;;;1.54;nan;-23858.59;5012722;28;20184;-71
2022/12/29 06:55:47;;;;;;;8.67;6.60;;;;;;;1.33;nan;-23852.88;5012489;28;20479;-70
2022/12/29 06:58:12;;;;;;;17.87;5.00;;;;;;;1.58;nan;-23859.88;5012487;28;20189;-71
2022/12/29 07:00:38;;;;;;;8.47;5.10;;;;;;;1.54;nan;-23858.75;5012451;28;20197;-71
2022/12/29 07:03:03;;;;;;;7.30;6.00;;;;;;;1.59;nan;-23860.03;5012230;28;20245;-71
2022/12/29 07:05:31;;;;;;;6.50;4.07;;;;;;;1.16;nan;-23847.88;5012526;28;20183;-70
2022/12/29 07:07:56;;;;;;;6.67;4.30;;;;;;;1.61;nan;-23860.59;5012295;28;20223;-71
2022/12/29 07:10:22;;;;;;;7.60;4.93;;;;;;;1.61;nan;-23860.75;5012004;28;20242;-71
2022/12/29 07:12:48;;;;;;;6.93;4.30;;;;;;;1.41;nan;-23855.03;5012038;28;20186;-71
2022/12/29 07:15:13;;;;;;;5.60;4.30;;;;;;;1.70;nan;-23863.16;5012044;28;20180;-70
2022/12/29 07:17:39;;;;;;;6.40;3.90;;;;;;;1.89;nan;-23868.47;5012122;28;20180;-71
2022/12/29 07:20:05;;;;;;;8.67;4.50;;;;;;;1.86;nan;-23867.59;5012071;28;20255;-71
2022/12/29 07:22:31;;;;;;;13.77;4.83;;;;;;;2.20;nan;-23877.31;5011424;28;20183;-70
2022/12/29 07:24:56;;;;;;;8.20;5.33;;;;;;;2.59;nan;-23888.31;5012071;28;20179;-71
2022/12/29 07:27:22;;;;;;;9.80;5.43;;;;;;;2.75;nan;-23892.72;5012263;28;20242;-71
2022/12/29 07:29:47;;;;;;;8.00;5.50;;;;;;;2.36;nan;-23881.88;5012017;28;20651;-71
2022/12/29 07:32:12;;;;;;;11.13;6.37;;;;;;;3.04;nan;-23901.00;5012115;28;20179;-70
2022/12/29 07:34:39;;;;;;;8.43;4.63;;;;;;;2.82;nan;-23894.72;5011986;28;20629;-70
2022/12/29 07:37:05;;;;;;;9.07;6.03;;;;;;;2.79;nan;-23893.88;5011838;28;20176;-70
2022/12/29 07:39:30;;;;;;;12.07;5.50;;;;;;;3.20;nan;-23905.41;5012174;28;20651;-70
2022/12/29 07:41:55;;;;;;;11.77;6.27;;;;;;;2.96;nan;-23898.72;5010675;28;20181;-70
2022/12/29 07:44:21;;;;;;;7.57;4.53;;;;;;;3.18;nan;-23904.84;5011751;28;20612;-70
2022/12/29 07:46:46;;;;;;;13.73;5.47;;;;;;;3.25;nan;-23907.00;5012174;28;20168;-69
2022/12/29 07:49:12;;;;;;;11.80;5.90;;;;;;;3.21;nan;-23905.84;5012240;28;20192;-70
2022/12/29 07:51:37;;;;;;;9.63;5.63;;;;;;;3.73;nan;-23920.38;5011358;28;20226;-70
2022/12/29 07:54:03;;;;;;;10.83;5.50;;;;;;;3.62;nan;-23917.41;5012609;28;20251;-70
2022/12/29 07:56:28;;;;;;;9.47;4.37;;;;;;;3.38;nan;-23910.69;5015656;28;20550;-71
2022/12/29 07:58:54;;;;;;;7.30;4.70;;;;;;;3.77;nan;-23921.53;5015718;28;20171;-70
2022/12/29 08:01:19;;;;;;;10.20;5.57;;;;;;;3.47;nan;-23913.25;5015850;28;20663;-70
2022/12/29 08:03:44;;;;;;;8.40;4.70;;;;;;;4.06;nan;-23929.78;5015444;28;20220;-71
2022/12/29 08:06:11;;;;;;;9.57;5.40;;;;;;;4.12;nan;-23931.34;5015340;28;20585;-70
2022/12/29 08:08:36;;;;;;;11.80;4.70;;;;;;;4.29;nan;-23936.34;5014988;28;20180;-69
2022/12/29 08:11:02;;;;;;;9.83;5.63;;;;;;;4.45;nan;-23940.91;5015329;28;20214;-69
2022/12/29 08:13:27;;;;;;;10.77;6.23;;;;;;;4.57;nan;-23944.03;5015766;28;20221;-70
2022/12/29 08:15:52;;;;;;;13.90;7.43;;;;;;;4.62;nan;-23945.47;5015484;28;20650;-69
2022/12/29 08:18:18;;;;;;;9.83;6.03;;;;;;;4.57;nan;-23944.03;5014820;28;20203;-70
2022/12/29 08:20:43;;;;;;;8.17;5.83;;;;;;;4.58;nan;-23944.47;5014911;28;20180;-70
2022/12/29 08:23:08;;;;;;;7.30;5.30;;;;;;;4.55;nan;-23943.59;5015177;28;20546;-69
2022/12/29 08:25:34;;;;;;;8.07;5.43;;;;;;;4.82;nan;-23951.16;5015020;28;20223;-70
2022/12/29 08:27:59;;;;;;;10.33;6.37;;;;;;;5.03;nan;-23956.97;5014834;28;20179;-69
2022/12/29 08:30:25;;;;;;;9.87;6.10;;;;;;;4.60;nan;-23945.03;5014696;28;20202;-69
2022/12/29 08:32:50;;;;;;;9.77;5.90;;;;;;;4.89;nan;-23953.13;5014984;28;20328;-70
2022/12/29 08:35:16;;;;;;;17.57;7.03;;;;;;;4.88;nan;-23952.84;5014960;28;20662;-71
2022/12/29 08:37:41;;;;;;;10.80;6.53;;;;;;;4.83;nan;-23951.44;5015033;28;20640;-71
2022/12/29 08:40:07;;;;;;;6.40;4.80;;;;;;;4.83;nan;-23951.44;5015117;28;20247;-69
2022/12/29 08:42:33;;;;;;;9.77;5.70;;;;;;;4.57;nan;-23944.03;5014661;28;20168;-69
2022/12/29 08:44:59;;;;;;;8.03;5.90;;;;;;;4.91;nan;-23953.72;5014678;28;20172;-71
2022/12/29 08:47:25;;;;;;;9.97;6.43;;;;;;;4.79;nan;-23950.28;5014686;28;20169;-70
2022/12/29 08:49:50;;;;;;;13.70;6.57;;;;;;;5.25;nan;-23963.38;5014230;28;20239;-70
2022/12/29 08:52:17;;;;;;;13.40;6.27;;;;;;;4.92;nan;-23954.00;5013957;28;20207;-69
2022/12/29 08:54:42;;;;;;;13.43;6.17;;;;;;;5.04;nan;-23957.41;5014044;28;20685;-70
2022/12/29 08:57:08;;;;;;;14.43;6.47;;;;;;;5.15;nan;-23960.53;5014605;28;20267;-70
2022/12/29 08:59:33;;;;;;;10.00;5.60;;;;;;;5.51;nan;-23970.63;5014710;28;20653;-70
2022/12/29 09:01:58;;;;;;;10.27;6.33;;;;;;;5.55;nan;-23971.63;5014215;28;20215;-71
2022/12/29 09:04:24;;;;;;;8.47;5.53;;;;;;;5.44;nan;-23968.50;5013787;28;20223;-72
2022/12/29 09:06:49;;;;;;;10.03;6.13;;;;;;;5.67;nan;-23975.03;5013747;28;20528;-70
2022/12/29 09:09:15;;;;;;;10.83;6.60;;;;;;;6.23;nan;-23990.81;5014761;28;20319;-70
2022/12/29 09:11:41;;;;;;;11.83;7.80;;;;;;;6.42;nan;-23996.22;5014021;28;20357;-71
2022/12/29 09:14:07;;;;;;;14.03;7.90;;;;;;;6.27;nan;-23991.81;5013638;28;20709;-70
2022/12/29 09:16:33;;;;;;;12.83;7.17;;;;;;;6.45;nan;-23996.91;5014823;28;20192;-70
2022/12/29 09:18:59;;;;;;;11.93;6.40;;;;;;;6.86;nan;-24008.56;5018259;28;20219;-70
2022/12/29 09:21:24;;;;;;;12.60;6.40;;;;;;;7.23;nan;-24018.75;5013676;28;20227;-71
2022/12/29 09:23:49;;;;;;;13.87;6.27;;;;;;;7.42;nan;-24024.16;5013796;28;20180;-70
2022/12/29 09:26:15;;;;;;;14.10;8.53;;;;;;;7.40;nan;-24023.59;5013218;28;20567;-71
2022/12/29 09:28:42;;;;;;;15.00;6.77;;;;;;;7.31;nan;-24021.03;5012249;28;20180;-71
2022/12/29 09:31:07;;;;;;;12.50;6.33;;;;;;;7.49;nan;-24026.28;5013395;28;20204;-71
2022/12/29 09:33:36;;;;;;;16.03;8.03;;;;;;;8.07;nan;-24042.44;5018845;28;20301;-71
2022/12/29 09:36:03;;;;;;;13.90;8.00;;;;;;;8.45;nan;-24052.91;5015211;28;20180;-71
2022/12/29 09:38:29;;;;;;;12.97;7.80;;;;;;;8.21;nan;-24046.41;5019816;28;20220;-70
2022/12/29 09:41:25;;;;;;;11.67;7.40;;;;;;;8.28;nan;-24048.22;5017904;28;20553;-70
2022/12/29 09:44:06;;;;;;;11.50;6.77;;;;;;;8.29;nan;-24048.50;5017156;28;20199;-70
2022/12/29 09:46:38;;;;;;;11.77;7.40;;;;;;;8.21;nan;-24046.25;5022363;28;20651;-71
2022/12/29 09:49:31;;;;;;;12.77;7.37;;;;;;;8.28;nan;-24048.22;5014538;28;20705;-70
2022/12/29 09:52:03;;;;;;;18.27;7.73;;;;;;;8.41;nan;-24051.91;5020961;28;20286;-70
2022/12/29 09:54:54;;;;;;;14.43;7.43;;;;;;;8.57;nan;-24056.31;5021864;28;20643;-71
2022/12/29 09:57:28;;;;;;;11.23;6.23;;;;;;;8.53;nan;-24055.16;5013292;28;20269;-70
2022/12/29 10:00:21;;;;;;;14.23;6.53;;;;;;;8.39;nan;-24051.50;5013354;28;20191;-70
2022/12/29 10:02:52;;;;;;;12.77;5.75;;;;;;;8.92;nan;-24066.22;5013603;28;20595;-70
2022/12/29 10:05:26;;;;;;;8.93;4.85;;;;;;;9.07;nan;-24070.44;5013044;28;20318;-70
2022/12/29 10:08:12;;;;;;;6.88;4.43;;;;;;;8.95;nan;-24066.91;5016273;28;20183;-70
2022/12/29 10:10:42;;;;;;;10.75;5.80;;;;;;;9.50;nan;-24082.47;5014245;28;20195;-70
2022/12/29 10:13:26;;;;;;;15.88;6.30;;;;;;;9.49;nan;-24082.19;5015273;28;20629;-71
2022/12/29 10:16:19;;;;;;;10.20;6.50;;;;;;;9.38;nan;-24079.06;5015482;28;20321;-71
2022/12/29 10:19:00;;;;;;;16.08;7.22;;;;;;;9.49;nan;-24082.19;5005897;28;20190;-71
2022/12/29 10:21:47;;;;;;;13.18;5.85;;;;;;;9.65;nan;-24086.72;5014756;28;20301;-71
2022/12/29 10:24:13;;;;;;;13.88;6.25;;;;;;;9.63;nan;-24086.13;5012248;28;20254;-71
2022/12/29 10:26:43;;;;;;;11.55;5.60;;;;;;;9.86;nan;-24092.50;5012340;28;20176;-71
2022/12/29 10:29:15;;;;;;;12.20;6.88;;;;;;;10.01;nan;-24096.72;5012428;28;20598;-70
2022/12/29 10:31:50;;;;;;;10.75;6.32;;;;;;;10.12;nan;-24099.69;5012430;28;20257;-71
2022/12/29 10:34:33;;;;;;;13.68;6.75;;;;;;;10.00;nan;-24096.31;5012545;28;20171;-70
2022/12/29 10:37:22;;;;;;;10.02;5.63;;;;;;;9.55;nan;-24083.75;5012713;28;20264;-71
2022/12/29 10:39:53;;;;;;;12.07;6.65;;;;;;;9.08;nan;-24070.72;5014939;28;20274;-70
2022/12/29 10:42:27;;;;;;;12.30;6.03;;;;;;;9.50;nan;-24082.47;5012263;28;20180;-71
2022/12/29 10:44:55;;;;;;;12.18;5.97;;;;;;;9.45;nan;-24080.91;5011789;28;20174;-71
2022/12/29 10:47:28;;;;;;;9.60;5.65;;;;;;;9.05;nan;-24069.75;5012583;28;20274;-70
2022/12/29 10:49:53;;;;;;;15.05;5.75;;;;;;;9.42;nan;-24080.22;5012411;28;20282;-70
2022/12/29 10:52:22;;;;;;;11.27;4.90;;;;;;;9.70;nan;-24088.13;5012105;28;20267;-71
2022/12/29 10:55:12;;;;;;;10.00;5.57;;;;;;;9.38;nan;-24078.94;5012310;28;20180;-70
2022/12/29 10:57:43;;;;;;;7.97;5.20;;;;;;;9.17;nan;-24073.13;5011565;28;20534;-71
2022/12/29 11:00:13;;;;;;;11.82;5.60;;;;;;;9.65;nan;-24086.72;5012001;28;20631;-71
2022/12/29 11:02:54;;;;;;;11.20;5.72;;;;;;;9.81;nan;-24090.94;5012064;28;20173;-71
2022/12/29 11:05:36;;;;;;;11.57;5.80;;;;;;;9.82;nan;-24091.38;5011988;28;20224;-71
2022/12/29 11:08:16;;;;;;;10.45;5.68;;;;;;;9.86;nan;-24092.50;5011353;28;20540;-71
2022/12/29 11:10:43;;;;;;;15.43;5.57;;;;;;;10.03;nan;-24097.31;5011997;28;20203;-71
2022/12/29 11:13:25;;;;;;;10.20;5.82;;;;;;;10.13;nan;-24099.97;5011937;28;20511;-71
2022/12/29 11:15:51;;;;;;;15.10;7.05;;;;;;;9.70;nan;-24087.97;5012021;28;20310;-71
2022/12/29 11:18:21;;;;;;;10.65;5.88;;;;;;;10.12;nan;-24099.69;5017067;28;20282;-71
2022/12/29 11:20:47;;;;;;;14.95;7.05;;;;;;;10.02;nan;-24096.88;5012054;28;20198;-72
2022/12/29 11:23:25;;;;;;;13.55;5.90;;;;;;;10.49;nan;-24110.00;5011811;28;20183;-71
2022/12/29 11:26:22;;;;;;;10.77;6.43;;;;;;;10.37;nan;-24106.75;5011681;28;20187;-72
2022/12/29 11:29:14;;;;;;;12.10;6.13;;;;;;;10.56;nan;-24112.13;5014073;28;20168;-71
2022/12/29 11:31:58;;;;;;;10.43;6.28;;;;;;;10.80;nan;-24118.75;5015793;28;20199;-71
2022/12/29 11:34:25;;;;;;;13.10;7.13;;;;;;;10.79;nan;-24118.47;5021015;28;20231;-70
2022/12/29 11:36:53;;;;;;;15.38;7.68;;;;;;;10.74;nan;-24116.91;5019671;28;20595;-70
2022/12/29 11:39:29;;;;;;;15.80;7.50;;;;;;;10.19;nan;-24101.69;5020397;28;20190;-71
2022/12/29 11:41:54;;;;;;;11.18;6.93;;;;;;;10.30;nan;-24104.66;5015451;28;20267;-70
2022/12/29 11:44:20;;;;;;;13.52;7.10;;;;;;;10.32;nan;-24105.34;5015260;28;20270;-71
2022/12/29 11:46:50;;;;;;;11.18;6.72;;;;;;;10.58;nan;-24112.69;5015534;28;20172;-72
2022/12/29 11:49:22;;;;;;;17.35;6.90;;;;;;;10.18;nan;-24101.41;5015509;28;20632;-70
2022/12/29 11:51:50;;;;;;;14.50;6.93;;;;;;;10.48;nan;-24109.88;5015301;28;20278;-70
2022/12/29 11:54:26;;;;;;;14.10;6.78;;;;;;;10.72;nan;-24116.34;5015554;28;20176;-71
2022/12/29 11:56:53;;;;;;;19.45;8.80;;;;;;;10.54;nan;-24111.41;5018627;28;20238;-71
2022/12/29 11:59:29;;;;;;;13.60;6.97;;;;;;;10.85;nan;-24120.03;5020029;28;20188;-70
2022/12/29 12:01:57;;;;;;;15.38;7.90;;;;;;;10.84;nan;-24119.75;5017756;28;20525;-71
2022/12/29 12:04:28;;;;;;;13.73;7.60;;;;;;;10.58;nan;-24112.56;5019369;28;20247;-71
2022/12/29 12:07:12;;;;;;;13.18;7.15;;;;;;;11.11;nan;-24127.34;5017400;28;20565;-70
2022/12/29 12:09:54;;;;;;;13.57;6.90;;;;;;;10.81;nan;-24118.91;5015096;28;20195;-70
2022/12/29 12:12:55;;;;;;;15.98;7.05;;;;;;;10.89;nan;-24121.16;5017374;28;20184;-71
2022/12/29 12:15:29;;;;;;;15.73;6.38;;;;;;;10.47;nan;-24109.44;5013951;28;20318;-71
2022/12/29 12:18:01;;;;;;;12.27;6.95;;;;;;;10.89;nan;-24121.16;5014957;28;20175;-71
2022/12/29 12:20:56;;;;;;;10.77;6.57;;;;;;;11.04;nan;-24125.38;5015050;28;20730;-71
2022/12/29 12:23:48;;;;;;;14.10;6.53;;;;;;;11.02;nan;-24124.81;5014567;28;20246;-71
2022/12/29 12:26:21;;;;;;;18.25;8.25;;;;;;;10.38;nan;-24107.03;5014682;28;20221;-71
2022/12/29 12:29:09;;;;;;;12.43;6.30;;;;;;;10.81;nan;-24118.91;5015208;28;20247;-70
2022/12/29 12:31:51;;;;;;;15.50;7.82;;;;;;;10.72;nan;-24116.34;5014129;28;20354;-71
2022/12/29 12:34:35;;;;;;;12.13;7.82;;;;;;;10.95;nan;-24122.84;5015177;28;20184;-71
2022/12/29 12:37:07;;;;;;;13.80;7.32;;;;;;;10.78;nan;-24118.03;5014782;28;20189;-71
2022/12/29 12:40:04;;;;;;;15.75;6.97;;;;;;;10.43;nan;-24108.31;5013785;28;20180;-70
2022/12/29 12:42:39;;;;;;;19.40;7.68;;;;;;;10.90;nan;-24121.44;5014688;28;20183;-71
2022/12/29 12:45:25;;;;;;;14.20;6.70;;;;;;;10.69;nan;-24115.66;5014539;28;20658;-71